First Step — WAC5546 — position and weather

sailwx.info

Track history (hours):
 
Tides and Currents Weather Stations Pressure Air Temp Water Temp Dewpoint Dewpoint Depression Visibility Wind Speed Wind Dir Waves Ship Positions

First Step

Owner: SCHOBER, ROBERT F, VILLANOVA, PA. More information available from US FCC via Universal Licensing System and Coast Guard Vessel Documentation Center.

Last reported at 2018-Jul-20 02:31 UTC. Time now 2018-Jul-20 02:51 UTC.
Position N 32°42' W 118°14'.

Type: Fishing. MMSI: 367042740.

Date/timePositionNaut miles runAvg speedWind from/ knotsBaromVisibWave heightAir tempDewpointWater temp
2018-Jul-20 02:31N 32°42' W 118°14'2 3.3
2018-Jul-20 02:01N 32°40' W 118°14'1 1.6
2018-Jul-20 01:30N 32°41' W 118°14'0 0.2
2018-Jul-20 01:00N 32°41' W 118°15'1 2.8
2018-Jul-20 00:30N 32°40' W 118°16'0 0.4
2018-Jul-19 23:59N 32°40' W 118°16'0 1.0
2018-Jul-19 23:31N 32°40' W 118°17'1 2.1
2018-Jul-19 23:01N 32°39' W 118°16'0 0.7
2018-Jul-19 22:30N 32°39' W 118°17'3 5.3
2018-Jul-19 22:00N 32°39' W 118°14'0 0.2
2018-Jul-19 21:30N 32°39' W 118°14'2 4.2
2018-Jul-19 21:00N 32°38' W 118°16'2 3.4
2018-Jul-19 20:30N 32°40' W 118°16'0 0.0
2018-Jul-19 20:01N 32°40' W 118°16'0 0.6
2018-Jul-19 19:30N 32°40' W 118°16'1 2.4
2018-Jul-19 19:00N 32°41' W 118°16'2 3.9
2018-Jul-19 18:29N 32°42' W 118°14'2 3.3
2018-Jul-19 18:00N 32°43' W 118°12'1 1.9
2018-Jul-19 17:30N 32°44' W 118°12'1 1.0
2018-Jul-19 17:00N 32°44' W 118°11'0 0.4
2018-Jul-19 16:30N 32°44' W 118°12'1 1.7
2018-Jul-19 16:00N 32°44' W 118°13'0 0.8
2018-Jul-19 15:29N 32°44' W 118°12'1 1.1
2018-Jul-19 15:00N 32°44' W 118°13'4 3.7
2018-Jul-19 14:01N 32°41' W 118°12'0 0.6
2018-Jul-19 13:31N 32°41' W 118°12'0 0.2
2018-Jul-19 13:01N 32°40' W 118°12'0 0.2
2018-Jul-19 12:31N 32°40' W 118°12'0 0.4
2018-Jul-19 12:00N 32°40' W 118°12'0 0.4
2018-Jul-19 11:31N 32°40' W 118°12'0 0.6
2018-Jul-19 11:00N 32°40' W 118°12'1 2.9
2018-Jul-19 10:30N 32°39' W 118°10'4 8.8
2018-Jul-19 10:00N 32°39' W 118°05'510.0
2018-Jul-19 09:30N 32°39' W 117°59'5 9.8
2018-Jul-19 08:57N 32°39' W 117°53'4 9.8
2018-Jul-19 08:30N 32°39' W 117°47'5 9.9
2018-Jul-19 08:00N 32°39' W 117°42'5 9.9
2018-Jul-19 07:31N 32°38' W 117°36'5 9.3
2018-Jul-19 07:01N 32°39' W 117°30'5 9.7
2018-Jul-19 06:30N 32°38' W 117°24'510.3
2018-Jul-19 06:01N 32°38' W 117°18'4 8.4
2018-Jul-19 05:31N 32°39' W 117°14'2 4.7
2018-Jul-19 05:00N 32°42' W 117°14'0 0.0
2018-Jul-19 04:30N 32°42' W 117°14'  
2018-Jul-16 15:55N 32°43' W 117°14'0 0.0
2018-Jul-16 03:07N 32°43' W 117°14'0 0.5
2018-Jul-16 02:59N 32°43' W 117°13'4 8.8
2018-Jul-16 02:30N 32°39' W 117°14'5 9.5
2018-Jul-16 02:00N 32°38' W 117°19'510.1
2018-Jul-16 01:30N 32°37' W 117°25'510.2
2018-Jul-16 01:00N 32°37' W 117°31'510.6
2018-Jul-16 00:31N 32°36' W 117°37'610.7
2018-Jul-16 00:00N 32°36' W 117°44'510.5
2018-Jul-15 23:31N 32°35' W 117°50'5 9.7
2018-Jul-15 23:00N 32°35' W 117°55'2 4.1
2018-Jul-15 22:31N 32°34' W 117°58'0 0.9
2018-Jul-15 22:00N 32°34' W 117°58'1 1.3
2018-Jul-15 21:30N 32°35' W 117°58'2 4.1
2018-Jul-15 21:01N 32°37' W 117°59'1 2.5
2018-Jul-15 20:30N 32°36' W 117°58'1 1.8
2018-Jul-15 20:01N 32°37' W 117°57'0 1.0
2018-Jul-15 19:31N 32°37' W 117°57'1 1.8
2018-Jul-15 19:01N 32°36' W 117°57'2 3.9
2018-Jul-15 18:28N 32°35' W 117°54'3 7.4
2018-Jul-15 18:00N 32°35' W 117°50'5 9.5
2018-Jul-15 17:31N 32°35' W 117°45'5 9.2
2018-Jul-15 16:59N 32°36' W 117°39'3 6.6
2018-Jul-15 16:30N 32°37' W 117°35'4 7.9
2018-Jul-15 16:01N 32°35' W 117°31'3 5.9
2018-Jul-15 15:31N 32°37' W 117°28'5 9.5
2018-Jul-15 15:01N 32°38' W 117°22'5 9.9
2018-Jul-15 14:28N 32°38' W 117°16'4 8.0
2018-Jul-15 14:01N 32°41' W 117°14'1 1.3
2018-Jul-15 13:31N 32°42' W 117°14'2 0.2
2018-Jul-15 01:56N 32°43' W 117°14'3 7.1
2018-Jul-15 01:31N 32°40' W 117°14'4 8.7
2018-Jul-15 01:00N 32°37' W 117°17'510.1
2018-Jul-15 00:31N 32°36' W 117°23'5 9.9
2018-Jul-15 00:01N 32°36' W 117°29'5 9.9
2018-Jul-14 23:31N 32°35' W 117°35'510.3
2018-Jul-14 23:01N 32°36' W 117°41'3 6.7
2018-Jul-14 22:31N 32°36' W 117°45'4 7.4
2018-Jul-14 22:01N 32°36' W 117°49'4 7.6
2018-Jul-14 21:31N 32°33' W 117°49'3 6.4
2018-Jul-14 21:00N 32°30' W 117°51'1 1.8
2018-Jul-14 20:30N 32°30' W 117°52'1 1.2
2018-Jul-14 20:00N 32°30' W 117°52'2 3.6
2018-Jul-14 19:30N 32°32' W 117°52'3 5.1
2018-Jul-14 19:00N 32°34' W 117°51'2 3.7
2018-Jul-14 18:30N 32°34' W 117°49'4 6.9
2018-Jul-14 17:57N 32°34' W 117°45'3 7.3
2018-Jul-14 17:30N 32°35' W 117°41'0 0.6
2018-Jul-14 17:01N 32°35' W 117°41'4 8.3
2018-Jul-14 16:31N 32°35' W 117°36'4 7.6
2018-Jul-14 16:01N 32°36' W 117°31'5 9.0
2018-Jul-14 15:30N 32°37' W 117°26'5 9.6
2018-Jul-14 15:01N 32°38' W 117°20'5 9.5
2018-Jul-14 14:29N 32°38' W 117°15'4 3.8
2018-Jul-14 13:31N 32°42' W 117°14'1 0.1
2018-Jul-14 00:21N 32°43' W 117°14'0 0.0
2018-Jul-13 23:57N 32°43' W 117°14'0 0.0
2018-Jul-13 23:26N 32°43' W 117°14'0 0.0
2018-Jul-13 22:54N 32°43' W 117°14'0 0.0
2018-Jul-13 13:06N 32°43' W 117°14'0 1.7
2018-Jul-13 13:00N 32°43' W 117°13'3 6.8
2018-Jul-13 12:30N 32°40' W 117°14'3 5.7
2018-Jul-13 12:00N 32°38' W 117°15'4 8.2
2018-Jul-13 11:30N 32°37' W 117°20'4 8.5
2018-Jul-13 11:01N 32°37' W 117°25'4 8.7
2018-Jul-13 10:31N 32°37' W 117°31'4 8.6
2018-Jul-13 10:00N 32°36' W 117°36'4 7.7
2018-Jul-13 09:31N 32°35' W 117°40'0 0.4
2018-Jul-13 09:01N 32°35' W 117°40'0 0.5
2018-Jul-13 08:30N 32°35' W 117°40'0 0.5
2018-Jul-13 08:00N 32°36' W 117°40'0 0.6
2018-Jul-13 07:30N 32°36' W 117°40'0 0.7
2018-Jul-13 07:01N 32°36' W 117°39'2 4.1
2018-Jul-13 06:30N 32°36' W 117°42'4 8.6
2018-Jul-13 06:00N 32°31' W 117°42'4 9.0
2018-Jul-13 05:30N 32°27' W 117°41'5 9.1
2018-Jul-13 04:57N 32°22' W 117°40'4 9.1
2018-Jul-13 04:30N 32°18' W 117°39'1 1.5
2018-Jul-13 04:01N 32°17' W 117°39'1 2.9
2018-Jul-13 03:30N 32°17' W 117°37'0 0.2
2018-Jul-13 03:00N 32°16' W 117°37'0 0.3
2018-Jul-13 02:30N 32°16' W 117°37'3 5.0
2018-Jul-13 01:57N 32°16' W 117°34'1 1.2
2018-Jul-13 01:30N 32°16' W 117°33'1 2.2
2018-Jul-13 01:00N 32°15' W 117°33'3 6.5
2018-Jul-13 00:30N 32°13' W 117°36'4 5.9
2018-Jul-12 23:51N 32°16' W 117°39'3 6.1
2018-Jul-12 23:20N 32°19' W 117°40'2 4.2
2018-Jul-12 22:55N 32°19' W 117°42'3 7.4
2018-Jul-12 22:30N 32°19' W 117°46'0 0.6
2018-Jul-12 22:01N 32°19' W 117°46'0 1.0
2018-Jul-12 21:31N 32°19' W 117°47'3 6.5
2018-Jul-12 21:00N 32°19' W 117°51'2 3.9
2018-Jul-12 20:30N 32°21' W 117°52'2 3.5
2018-Jul-12 20:00N 32°22' W 117°53'1 2.7
2018-Jul-12 19:30N 32°23' W 117°54'3 5.1
2018-Jul-12 19:00N 32°24' W 117°57'3 6.0
2018-Jul-12 18:30N 32°25' W 117°54'2 4.1
2018-Jul-12 17:59N 32°27' W 117°52'2 3.7
2018-Jul-12 17:31N 32°26' W 117°50'1 2.2
2018-Jul-12 16:59N 32°27' W 117°50'1 1.8
2018-Jul-12 16:30N 32°27' W 117°49'2 4.7
2018-Jul-12 16:00N 32°27' W 117°46'1 1.3
2018-Jul-12 15:28N 32°28' W 117°46'2 3.8
2018-Jul-12 15:00N 32°29' W 117°46'1 2.0
2018-Jul-12 14:31N 32°30' W 117°47'2 3.9
2018-Jul-12 14:00N 32°29' W 117°45'3 5.0
2018-Jul-12 13:29N 32°26' W 117°43'3 6.7
2018-Jul-12 13:00N 32°29' W 117°42'5 9.2
2018-Jul-12 12:30N 32°34' W 117°42'4 7.3
2018-Jul-12 12:01N 32°35' W 117°47'4 8.8
2018-Jul-12 11:30N 32°38' W 117°51'4 8.7
2018-Jul-12 11:00N 32°41' W 117°53'3 5.6
2018-Jul-12 10:31N 32°44' W 117°53'2 4.7
2018-Jul-12 10:01N 32°45' W 117°51'2 4.5
2018-Jul-12 09:30N 32°45' W 117°48'4 8.0
2018-Jul-12 09:00N 32°44' W 117°43'4 8.4
2018-Jul-12 08:30N 32°44' W 117°39'4 8.7
2018-Jul-12 08:01N 32°43' W 117°33'4 8.3
2018-Jul-12 07:31N 32°42' W 117°29'4 8.3
2018-Jul-12 07:01N 32°42' W 117°24'4 8.7
2018-Jul-12 06:30N 32°40' W 117°19'4 8.9
2018-Jul-12 06:01N 32°38' W 117°14'4 7.3
2018-Jul-12 05:30N 32°42' W 117°14'0 0.1
2018-Jul-12 04:59N 32°42' W 117°14'1 2.2
2018-Jul-12 04:28N 32°43' W 117°13'1 0.7
2018-Jul-12 03:14N 32°43' W 117°14'0 0.0
2018-Jul-12 02:07N 32°43' W 117°14'0 0.0
2018-Jul-12 01:57N 32°43' W 117°14'0 0.0
2018-Jul-12 00:59N 32°43' W 117°14'0 0.0
2018-Jul-12 00:26N 32°43' W 117°14'0 0.0
2018-Jul-12 00:00N 32°43' W 117°14'0 0.0
2018-Jul-11 12:51N 32°43' W 117°14'1 4.0
2018-Jul-11 12:31N 32°42' W 117°14'4 8.5
2018-Jul-11 12:00N 32°38' W 117°15'4 8.1
2018-Jul-11 11:30N 32°39' W 117°20'4 7.6
2018-Jul-11 11:01N 32°40' W 117°24'4 7.5
2018-Jul-11 10:30N 32°41' W 117°28'4 7.5
2018-Jul-11 10:01N 32°42' W 117°33'4 7.5
2018-Jul-11 09:30N 32°43' W 117°37'4 7.5
2018-Jul-11 09:00N 32°44' W 117°41'4 7.6
2018-Jul-11 08:31N 32°45' W 117°46'4 7.7
2018-Jul-11 08:00N 32°46' W 117°50'4 8.4
2018-Jul-11 07:31N 32°46' W 117°55'0 0.4
2018-Jul-11 07:00N 32°46' W 117°55'0 0.4
2018-Jul-11 06:30N 32°46' W 117°55'0 0.3
2018-Jul-11 06:01N 32°46' W 117°55'0 0.4
2018-Jul-11 05:30N 32°46' W 117°56'0 0.4
2018-Jul-11 05:00N 32°46' W 117°56'0 0.4
2018-Jul-11 04:31N 32°46' W 117°56'0 0.8
2018-Jul-11 04:00N 32°46' W 117°56'0 0.9
2018-Jul-11 03:31N 32°45' W 117°56'0 0.5
2018-Jul-11 03:00N 32°45' W 117°56'0 0.9
2018-Jul-11 02:31N 32°45' W 117°56'0 0.8
2018-Jul-11 02:00N 32°45' W 117°55'0 0.5
2018-Jul-11 01:31N 32°45' W 117°56'0 0.1
2018-Jul-11 01:01N 32°45' W 117°56'1 1.0
2018-Jul-11 00:30N 32°45' W 117°55'0 0.8
2018-Jul-11 00:01N 32°45' W 117°55'0 0.8
2018-Jul-10 23:31N 32°44' W 117°55'1 2.0
2018-Jul-10 23:01N 32°45' W 117°54'0 0.8
2018-Jul-10 22:30N 32°44' W 117°54'0 0.9
2018-Jul-10 22:00N 32°44' W 117°55'0 0.9
2018-Jul-10 21:31N 32°43' W 117°55'1 1.6
2018-Jul-10 21:00N 32°44' W 117°54'3 5.1
2018-Jul-10 20:31N 32°44' W 117°51'1 2.4
2018-Jul-10 20:01N 32°44' W 117°53'1 1.6
2018-Jul-10 19:31N 32°43' W 117°53'1 1.1
2018-Jul-10 19:01N 32°43' W 117°53'2 3.5
2018-Jul-10 18:30N 32°42' W 117°55'4 7.1
2018-Jul-10 18:01N 32°40' W 117°58'2 3.9
2018-Jul-10 17:30N 32°42' W 117°57'1 1.7
2018-Jul-10 17:00N 32°42' W 117°56'1 1.2
2018-Jul-10 16:31N 32°42' W 117°56'1 1.1
2018-Jul-10 16:00N 32°41' W 117°55'0 0.7
2018-Jul-10 15:31N 32°41' W 117°55'2 4.3
2018-Jul-10 15:00N 32°42' W 117°53'1 2.7
2018-Jul-10 14:30N 32°43' W 117°52'0 0.7
2018-Jul-10 14:00N 32°42' W 117°52'0 0.6
2018-Jul-10 13:30N 32°42' W 117°52'0 0.6
2018-Jul-10 13:00N 32°42' W 117°52'0 0.6
2018-Jul-10 12:31N 32°42' W 117°52'0 0.6
2018-Jul-10 12:01N 32°42' W 117°51'1 1.3
2018-Jul-10 11:31N 32°42' W 117°50'0 0.6
2018-Jul-10 11:00N 32°41' W 117°50'0 0.6
2018-Jul-10 10:30N 32°41' W 117°50'2 5.0
2018-Jul-10 10:00N 32°41' W 117°47'3 6.9
2018-Jul-10 09:31N 32°40' W 117°43'3 6.6
2018-Jul-10 09:00N 32°40' W 117°39'3 6.7
2018-Jul-10 08:30N 32°40' W 117°36'3 6.7
2018-Jul-10 08:01N 32°39' W 117°32'3 6.7
2018-Jul-10 07:31N 32°39' W 117°28'3 6.4
2018-Jul-10 07:00N 32°38' W 117°24'4 6.6
2018-Jul-10 06:25N 32°38' W 117°19'3 8.3
2018-Jul-10 06:01N 32°38' W 117°15'4 7.8
2018-Jul-10 05:30N 32°42' W 117°14'0 0.3
2018-Jul-10 05:01N 32°42' W 117°14'0 0.3
2018-Jul-10 04:30N 32°42' W 117°14'2 3.4
2018-Jul-10 03:59N 32°43' W 117°14'0 0.0
2018-Jul-10 03:29N 32°43' W 117°14'0 0.0
2018-Jul-10 02:56N 32°43' W 117°14'  
Track history (hours):
 
Tides and Currents Weather Stations Pressure Air Temp Water Temp Dewpoint Dewpoint Depression Visibility Wind Speed Wind Dir Waves Ship Positions

First Step

Owner: SCHOBER, ROBERT F, VILLANOVA, PA. More information available from US FCC via Universal Licensing System and Coast Guard Vessel Documentation Center.

Last reported at 2018-Jul-20 02:31 UTC. Time now 2018-Jul-20 02:51 UTC.
Position N 32°42' W 118°14'.

Type: Fishing. MMSI: 367042740.

Date/timePositionNaut miles runAvg speedWind from/ knotsBaromVisibWave heightAir tempDewpointWater temp
2018-Jul-20 02:31N 32°42' W 118°14'2 3.3
2018-Jul-20 02:01N 32°40' W 118°14'1 1.6
2018-Jul-20 01:30N 32°41' W 118°14'0 0.2
2018-Jul-20 01:00N 32°41' W 118°15'1 2.8
2018-Jul-20 00:30N 32°40' W 118°16'0 0.4
2018-Jul-19 23:59N 32°40' W 118°16'0 1.0
2018-Jul-19 23:31N 32°40' W 118°17'1 2.1
2018-Jul-19 23:01N 32°39' W 118°16'0 0.7
2018-Jul-19 22:30N 32°39' W 118°17'3 5.3
2018-Jul-19 22:00N 32°39' W 118°14'0 0.2
2018-Jul-19 21:30N 32°39' W 118°14'2 4.2
2018-Jul-19 21:00N 32°38' W 118°16'2 3.4
2018-Jul-19 20:30N 32°40' W 118°16'0 0.0
2018-Jul-19 20:01N 32°40' W 118°16'0 0.6
2018-Jul-19 19:30N 32°40' W 118°16'1 2.4
2018-Jul-19 19:00N 32°41' W 118°16'2 3.9
2018-Jul-19 18:29N 32°42' W 118°14'2 3.3
2018-Jul-19 18:00N 32°43' W 118°12'1 1.9
2018-Jul-19 17:30N 32°44' W 118°12'1 1.0
2018-Jul-19 17:00N 32°44' W 118°11'0 0.4
2018-Jul-19 16:30N 32°44' W 118°12'1 1.7
2018-Jul-19 16:00N 32°44' W 118°13'0 0.8
2018-Jul-19 15:29N 32°44' W 118°12'1 1.1
2018-Jul-19 15:00N 32°44' W 118°13'4 3.7
2018-Jul-19 14:01N 32°41' W 118°12'0 0.6
2018-Jul-19 13:31N 32°41' W 118°12'0 0.2
2018-Jul-19 13:01N 32°40' W 118°12'0 0.2
2018-Jul-19 12:31N 32°40' W 118°12'0 0.4
2018-Jul-19 12:00N 32°40' W 118°12'0 0.4
2018-Jul-19 11:31N 32°40' W 118°12'0 0.6
2018-Jul-19 11:00N 32°40' W 118°12'1 2.9
2018-Jul-19 10:30N 32°39' W 118°10'4 8.8
2018-Jul-19 10:00N 32°39' W 118°05'510.0
2018-Jul-19 09:30N 32°39' W 117°59'5 9.8
2018-Jul-19 08:57N 32°39' W 117°53'4 9.8
2018-Jul-19 08:30N 32°39' W 117°47'5 9.9
2018-Jul-19 08:00N 32°39' W 117°42'5 9.9
2018-Jul-19 07:31N 32°38' W 117°36'5 9.3
2018-Jul-19 07:01N 32°39' W 117°30'5 9.7
2018-Jul-19 06:30N 32°38' W 117°24'510.3
2018-Jul-19 06:01N 32°38' W 117°18'4 8.4
2018-Jul-19 05:31N 32°39' W 117°14'2 4.7
2018-Jul-19 05:00N 32°42' W 117°14'0 0.0
2018-Jul-19 04:30N 32°42' W 117°14'  
2018-Jul-16 15:55N 32°43' W 117°14'0 0.0
2018-Jul-16 03:07N 32°43' W 117°14'0 0.5
2018-Jul-16 02:59N 32°43' W 117°13'4 8.8
2018-Jul-16 02:30N 32°39' W 117°14'5 9.5
2018-Jul-16 02:00N 32°38' W 117°19'510.1
2018-Jul-16 01:30N 32°37' W 117°25'510.2
2018-Jul-16 01:00N 32°37' W 117°31'510.6
2018-Jul-16 00:31N 32°36' W 117°37'610.7
2018-Jul-16 00:00N 32°36' W 117°44'510.5
2018-Jul-15 23:31N 32°35' W 117°50'5 9.7
2018-Jul-15 23:00N 32°35' W 117°55'2 4.1
2018-Jul-15 22:31N 32°34' W 117°58'0 0.9
2018-Jul-15 22:00N 32°34' W 117°58'1 1.3
2018-Jul-15 21:30N 32°35' W 117°58'2 4.1
2018-Jul-15 21:01N 32°37' W 117°59'1 2.5
2018-Jul-15 20:30N 32°36' W 117°58'1 1.8
2018-Jul-15 20:01N 32°37' W 117°57'0 1.0
2018-Jul-15 19:31N 32°37' W 117°57'1 1.8
2018-Jul-15 19:01N 32°36' W 117°57'2 3.9
2018-Jul-15 18:28N 32°35' W 117°54'3 7.4
2018-Jul-15 18:00N 32°35' W 117°50'5 9.5
2018-Jul-15 17:31N 32°35' W 117°45'5 9.2
2018-Jul-15 16:59N 32°36' W 117°39'3 6.6
2018-Jul-15 16:30N 32°37' W 117°35'4 7.9
2018-Jul-15 16:01N 32°35' W 117°31'3 5.9
2018-Jul-15 15:31N 32°37' W 117°28'5 9.5
2018-Jul-15 15:01N 32°38' W 117°22'5 9.9
2018-Jul-15 14:28N 32°38' W 117°16'4 8.0
2018-Jul-15 14:01N 32°41' W 117°14'1 1.3
2018-Jul-15 13:31N 32°42' W 117°14'2 0.2
2018-Jul-15 01:56N 32°43' W 117°14'3 7.1
2018-Jul-15 01:31N 32°40' W 117°14'4 8.7
2018-Jul-15 01:00N 32°37' W 117°17'510.1
2018-Jul-15 00:31N 32°36' W 117°23'5 9.9
2018-Jul-15 00:01N 32°36' W 117°29'5 9.9
2018-Jul-14 23:31N 32°35' W 117°35'510.3
2018-Jul-14 23:01N 32°36' W 117°41'3 6.7
2018-Jul-14 22:31N 32°36' W 117°45'4 7.4
2018-Jul-14 22:01N 32°36' W 117°49'4 7.6
2018-Jul-14 21:31N 32°33' W 117°49'3 6.4
2018-Jul-14 21:00N 32°30' W 117°51'1 1.8
2018-Jul-14 20:30N 32°30' W 117°52'1 1.2
2018-Jul-14 20:00N 32°30' W 117°52'2 3.6
2018-Jul-14 19:30N 32°32' W 117°52'3 5.1
2018-Jul-14 19:00N 32°34' W 117°51'2 3.7
2018-Jul-14 18:30N 32°34' W 117°49'4 6.9
2018-Jul-14 17:57N 32°34' W 117°45'3 7.3
2018-Jul-14 17:30N 32°35' W 117°41'0 0.6
2018-Jul-14 17:01N 32°35' W 117°41'4 8.3
2018-Jul-14 16:31N 32°35' W 117°36'4 7.6
2018-Jul-14 16:01N 32°36' W 117°31'5 9.0
2018-Jul-14 15:30N 32°37' W 117°26'5 9.6
2018-Jul-14 15:01N 32°38' W 117°20'5 9.5
2018-Jul-14 14:29N 32°38' W 117°15'4 3.8
2018-Jul-14 13:31N 32°42' W 117°14'1 0.1
2018-Jul-14 00:21N 32°43' W 117°14'0 0.0
2018-Jul-13 23:57N 32°43' W 117°14'0 0.0
2018-Jul-13 23:26N 32°43' W 117°14'0 0.0
2018-Jul-13 22:54N 32°43' W 117°14'0 0.0
2018-Jul-13 13:06N 32°43' W 117°14'0 1.7
2018-Jul-13 13:00N 32°43' W 117°13'3 6.8
2018-Jul-13 12:30N 32°40' W 117°14'3 5.7
2018-Jul-13 12:00N 32°38' W 117°15'4 8.2
2018-Jul-13 11:30N 32°37' W 117°20'4 8.5
2018-Jul-13 11:01N 32°37' W 117°25'4 8.7
2018-Jul-13 10:31N 32°37' W 117°31'4 8.6
2018-Jul-13 10:00N 32°36' W 117°36'4 7.7
2018-Jul-13 09:31N 32°35' W 117°40'0 0.4
2018-Jul-13 09:01N 32°35' W 117°40'0 0.5
2018-Jul-13 08:30N 32°35' W 117°40'0 0.5
2018-Jul-13 08:00N 32°36' W 117°40'0 0.6
2018-Jul-13 07:30N 32°36' W 117°40'0 0.7
2018-Jul-13 07:01N 32°36' W 117°39'2 4.1
2018-Jul-13 06:30N 32°36' W 117°42'4 8.6
2018-Jul-13 06:00N 32°31' W 117°42'4 9.0
2018-Jul-13 05:30N 32°27' W 117°41'5 9.1
2018-Jul-13 04:57N 32°22' W 117°40'4 9.1
2018-Jul-13 04:30N 32°18' W 117°39'1 1.5
2018-Jul-13 04:01N 32°17' W 117°39'1 2.9
2018-Jul-13 03:30N 32°17' W 117°37'0 0.2
2018-Jul-13 03:00N 32°16' W 117°37'0 0.3
2018-Jul-13 02:30N 32°16' W 117°37'3 5.0
2018-Jul-13 01:57N 32°16' W 117°34'1 1.2
2018-Jul-13 01:30N 32°16' W 117°33'1 2.2
2018-Jul-13 01:00N 32°15' W 117°33'3 6.5
2018-Jul-13 00:30N 32°13' W 117°36'4 5.9
2018-Jul-12 23:51N 32°16' W 117°39'3 6.1
2018-Jul-12 23:20N 32°19' W 117°40'2 4.2
2018-Jul-12 22:55N 32°19' W 117°42'3 7.4
2018-Jul-12 22:30N 32°19' W 117°46'0 0.6
2018-Jul-12 22:01N 32°19' W 117°46'0 1.0
2018-Jul-12 21:31N 32°19' W 117°47'3 6.5
2018-Jul-12 21:00N 32°19' W 117°51'2 3.9
2018-Jul-12 20:30N 32°21' W 117°52'2 3.5
2018-Jul-12 20:00N 32°22' W 117°53'1 2.7
2018-Jul-12 19:30N 32°23' W 117°54'3 5.1
2018-Jul-12 19:00N 32°24' W 117°57'3 6.0
2018-Jul-12 18:30N 32°25' W 117°54'2 4.1
2018-Jul-12 17:59N 32°27' W 117°52'2 3.7
2018-Jul-12 17:31N 32°26' W 117°50'1 2.2
2018-Jul-12 16:59N 32°27' W 117°50'1 1.8
2018-Jul-12 16:30N 32°27' W 117°49'2 4.7
2018-Jul-12 16:00N 32°27' W 117°46'1 1.3
2018-Jul-12 15:28N 32°28' W 117°46'2 3.8
2018-Jul-12 15:00N 32°29' W 117°46'1 2.0
2018-Jul-12 14:31N 32°30' W 117°47'2 3.9
2018-Jul-12 14:00N 32°29' W 117°45'3 5.0
2018-Jul-12 13:29N 32°26' W 117°43'3 6.7
2018-Jul-12 13:00N 32°29' W 117°42'5 9.2
2018-Jul-12 12:30N 32°34' W 117°42'4 7.3
2018-Jul-12 12:01N 32°35' W 117°47'4 8.8
2018-Jul-12 11:30N 32°38' W 117°51'4 8.7
2018-Jul-12 11:00N 32°41' W 117°53'3 5.6
2018-Jul-12 10:31N 32°44' W 117°53'2 4.7
2018-Jul-12 10:01N 32°45' W 117°51'2 4.5
2018-Jul-12 09:30N 32°45' W 117°48'4 8.0
2018-Jul-12 09:00N 32°44' W 117°43'4 8.4
2018-Jul-12 08:30N 32°44' W 117°39'4 8.7
2018-Jul-12 08:01N 32°43' W 117°33'4 8.3
2018-Jul-12 07:31N 32°42' W 117°29'4 8.3
2018-Jul-12 07:01N 32°42' W 117°24'4 8.7
2018-Jul-12 06:30N 32°40' W 117°19'4 8.9
2018-Jul-12 06:01N 32°38' W 117°14'4 7.3
2018-Jul-12 05:30N 32°42' W 117°14'0 0.1
2018-Jul-12 04:59N 32°42' W 117°14'1 2.2
2018-Jul-12 04:28N 32°43' W 117°13'1 0.7
2018-Jul-12 03:14N 32°43' W 117°14'0 0.0
2018-Jul-12 02:07N 32°43' W 117°14'0 0.0
2018-Jul-12 01:57N 32°43' W 117°14'0 0.0
2018-Jul-12 00:59N 32°43' W 117°14'0 0.0
2018-Jul-12 00:26N 32°43' W 117°14'0 0.0
2018-Jul-12 00:00N 32°43' W 117°14'0 0.0
2018-Jul-11 12:51N 32°43' W 117°14'1 4.0
2018-Jul-11 12:31N 32°42' W 117°14'4 8.5
2018-Jul-11 12:00N 32°38' W 117°15'4 8.1
2018-Jul-11 11:30N 32°39' W 117°20'4 7.6
2018-Jul-11 11:01N 32°40' W 117°24'4 7.5
2018-Jul-11 10:30N 32°41' W 117°28'4 7.5
2018-Jul-11 10:01N 32°42' W 117°33'4 7.5
2018-Jul-11 09:30N 32°43' W 117°37'4 7.5
2018-Jul-11 09:00N 32°44' W 117°41'4 7.6
2018-Jul-11 08:31N 32°45' W 117°46'4 7.7
2018-Jul-11 08:00N 32°46' W 117°50'4 8.4
2018-Jul-11 07:31N 32°46' W 117°55'0 0.4
2018-Jul-11 07:00N 32°46' W 117°55'0 0.4
2018-Jul-11 06:30N 32°46' W 117°55'0 0.3
2018-Jul-11 06:01N 32°46' W 117°55'0 0.4
2018-Jul-11 05:30N 32°46' W 117°56'0 0.4
2018-Jul-11 05:00N 32°46' W 117°56'0 0.4
2018-Jul-11 04:31N 32°46' W 117°56'0 0.8
2018-Jul-11 04:00N 32°46' W 117°56'0 0.9
2018-Jul-11 03:31N 32°45' W 117°56'0 0.5
2018-Jul-11 03:00N 32°45' W 117°56'0 0.9
2018-Jul-11 02:31N 32°45' W 117°56'0 0.8
2018-Jul-11 02:00N 32°45' W 117°55'0 0.5
2018-Jul-11 01:31N 32°45' W 117°56'0 0.1
2018-Jul-11 01:01N 32°45' W 117°56'1 1.0
2018-Jul-11 00:30N 32°45' W 117°55'0 0.8
2018-Jul-11 00:01N 32°45' W 117°55'0 0.8
2018-Jul-10 23:31N 32°44' W 117°55'1 2.0
2018-Jul-10 23:01N 32°45' W 117°54'0 0.8
2018-Jul-10 22:30N 32°44' W 117°54'0 0.9
2018-Jul-10 22:00N 32°44' W 117°55'0 0.9
2018-Jul-10 21:31N 32°43' W 117°55'1 1.6
2018-Jul-10 21:00N 32°44' W 117°54'3 5.1
2018-Jul-10 20:31N 32°44' W 117°51'1 2.4
2018-Jul-10 20:01N 32°44' W 117°53'1 1.6
2018-Jul-10 19:31N 32°43' W 117°53'1 1.1
2018-Jul-10 19:01N 32°43' W 117°53'2 3.5
2018-Jul-10 18:30N 32°42' W 117°55'4 7.1
2018-Jul-10 18:01N 32°40' W 117°58'2 3.9
2018-Jul-10 17:30N 32°42' W 117°57'1 1.7
2018-Jul-10 17:00N 32°42' W 117°56'1 1.2
2018-Jul-10 16:31N 32°42' W 117°56'1 1.1
2018-Jul-10 16:00N 32°41' W 117°55'0 0.7
2018-Jul-10 15:31N 32°41' W 117°55'2 4.3
2018-Jul-10 15:00N 32°42' W 117°53'1 2.7
2018-Jul-10 14:30N 32°43' W 117°52'0 0.7
2018-Jul-10 14:00N 32°42' W 117°52'0 0.6
2018-Jul-10 13:30N 32°42' W 117°52'0 0.6
2018-Jul-10 13:00N 32°42' W 117°52'0 0.6
2018-Jul-10 12:31N 32°42' W 117°52'0 0.6
2018-Jul-10 12:01N 32°42' W 117°51'1 1.3
2018-Jul-10 11:31N 32°42' W 117°50'0 0.6
2018-Jul-10 11:00N 32°41' W 117°50'0 0.6
2018-Jul-10 10:30N 32°41' W 117°50'2 5.0
2018-Jul-10 10:00N 32°41' W 117°47'3 6.9
2018-Jul-10 09:31N 32°40' W 117°43'3 6.6
2018-Jul-10 09:00N 32°40' W 117°39'3 6.7
2018-Jul-10 08:30N 32°40' W 117°36'3 6.7
2018-Jul-10 08:01N 32°39' W 117°32'3 6.7
2018-Jul-10 07:31N 32°39' W 117°28'3 6.4
2018-Jul-10 07:00N 32°38' W 117°24'4 6.6
2018-Jul-10 06:25N 32°38' W 117°19'3 8.3
2018-Jul-10 06:01N 32°38' W 117°15'4 7.8
2018-Jul-10 05:30N 32°42' W 117°14'0 0.3
2018-Jul-10 05:01N 32°42' W 117°14'0 0.3
2018-Jul-10 04:30N 32°42' W 117°14'2 3.4
2018-Jul-10 03:59N 32°43' W 117°14'0 0.0
2018-Jul-10 03:29N 32°43' W 117°14'0 0.0
2018-Jul-10 02:56N 32°43' W 117°14'  

Dump ship's entire track history